Time;durP1;ratioP1;P1;durP2;ratioP2;P2;SDS_P1;SDS_P2;PMS_P1;PMS_P2;Temp;Humidity;BMP_temperature;BMP_pressure;BME280_temperature;BME280_humidity;BME280_pressure;Samples;Min_cycle;Max_cycle;Signal;HPM_P1;HPM_P2
2020/12/27 00:00:10;;;;;;;2.35;0.60;;;;;;;9.46;71.96;96210.78;5052457;28;20048;-79
2020/12/27 00:02:39;;;;;;;7.43;0.77;;;;;;;9.73;70.95;96197.91;5045089;28;20472;-79
2020/12/27 00:05:07;;;;;;;0.90;0.45;;;;;;;9.77;71.39;96200.22;5046900;28;20501;-79
2020/12/27 00:07:48;;;;;;;1.45;0.52;;;;;;;9.35;72.39;96182.75;5059866;28;20517;-79
2020/12/27 00:10:15;;;;;;;5.30;0.68;;;;;;;9.80;71.65;96171.34;5061196;28;20055;-78
2020/12/27 00:12:42;;;;;;;2.22;0.73;;;;;;;9.65;71.44;96159.25;5046931;28;20040;-79
2020/12/27 00:15:10;;;;;;;2.42;0.55;;;;;;;9.41;72.51;96160.72;5047965;28;20036;-79
2020/12/27 00:17:38;;;;;;;4.05;0.68;;;;;;;9.39;72.59;96155.59;5050132;28;20139;-78
2020/12/27 00:20:06;;;;;;;2.85;0.50;;;;;;;9.60;72.05;96141.28;5048901;28;20060;-79
2020/12/27 00:22:33;;;;;;;3.83;0.70;;;;;;;10.12;70.36;96130.25;5051614;28;20127;-79
2020/12/27 00:25:01;;;;;;;4.35;0.70;;;;;;;9.65;71.24;96112.34;5061060;28;20036;-79
2020/12/27 00:27:28;;;;;;;0.77;0.60;;;;;;;10.24;69.72;96111.28;5051500;28;20067;-79
2020/12/27 00:29:54;;;;;;;2.00;0.60;;;;;;;9.90;70.71;96083.84;5059902;28;20329;-79
2020/12/27 00:32:25;;;;;;;1.67;0.47;;;;;;;9.91;71.14;96072.47;5065865;28;20064;-78
2020/12/27 00:34:57;;;;;;;3.60;0.50;;;;;;;10.11;70.78;96062.56;5045861;28;20761;-79
2020/12/27 00:37:24;;;;;;;3.20;0.50;;;;;;;9.91;71.34;96046.41;5042361;28;20172;-78
2020/12/27 00:39:54;;;;;;;5.25;0.57;;;;;;;10.02;70.79;96040.53;5044298;28;20044;-78
2020/12/27 00:42:21;;;;;;;2.45;0.50;;;;;;;9.92;71.08;96018.56;5067091;28;20035;-79
2020/12/27 00:44:49;;;;;;;1.65;0.50;;;;;;;9.93;70.71;96012.41;5047604;28;20036;-79
2020/12/27 00:47:17;;;;;;;6.95;0.65;;;;;;;9.76;71.35;95992.63;5053780;28;20066;-78
2020/12/27 00:49:44;;;;;;;2.50;0.50;;;;;;;9.49;72.60;95970.91;5048860;28;20503;-77
2020/12/27 00:52:12;;;;;;;3.35;0.40;;;;;;;10.00;70.95;95958.94;5049265;28;20096;-78
2020/12/27 00:54:39;;;;;;;0.88;0.30;;;;;;;9.95;70.11;95951.41;5044124;28;20135;-78
2020/12/27 00:57:06;;;;;;;1.85;0.30;;;;;;;9.70;71.25;95934.84;5060527;28;20060;-77
2020/12/27 00:59:33;;;;;;;2.05;0.40;;;;;;;9.60;71.91;95911.97;5068660;28;20144;-78
2020/12/27 01:02:00;;;;;;;2.30;0.43;;;;;;;9.48;72.13;95910.16;5049721;28;20405;-78
2020/12/27 01:04:27;;;;;;;5.35;0.60;;;;;;;9.79;71.98;95893.38;5058945;28;20076;-77
2020/12/27 01:06:57;;;;;;;2.45;0.80;;;;;;;9.61;72.19;95874.56;5048128;28;20054;-78
2020/12/27 01:09:23;;;;;;;6.18;0.70;;;;;;;9.72;71.96;95868.66;5061422;28;20525;-78
2020/12/27 01:11:50;;;;;;;0.98;0.80;;;;;;;9.78;71.58;95865.66;5047292;28;20456;-78
2020/12/27 01:14:17;;;;;;;4.47;1.20;;;;;;;9.88;71.65;95834.63;5048579;28;20051;-79
2020/12/27 01:16:50;;;;;;;5.75;0.57;;;;;;;9.92;71.45;95836.91;5050269;28;20036;-78
2020/12/27 01:19:18;;;;;;;6.85;0.63;;;;;;;10.29;70.63;95829.25;5076798;28;20044;-78
2020/12/27 01:21:45;;;;;;;2.42;0.50;;;;;;;10.03;70.84;95807.50;5076032;28;20032;-78
2020/12/27 01:24:12;;;;;;;4.10;0.73;;;;;;;10.23;70.76;95809.63;5038631;28;20131;-78
2020/12/27 01:26:38;;;;;;;3.55;0.80;;;;;;;9.99;70.89;95791.22;5049637;28;20044;-78
2020/12/27 01:29:05;;;;;;;3.63;1.27;;;;;;;10.04;71.51;95802.19;5073988;28;20083;-78
2020/12/27 01:31:32;;;;;;;5.22;1.15;;;;;;;10.06;71.75;95763.81;5058439;28;20052;-78
2020/12/27 01:33:59;;;;;;;5.05;0.95;;;;;;;10.12;71.28;95756.53;5061910;28;20203;-77
2020/12/27 01:36:29;;;;;;;4.68;0.85;;;;;;;9.63;72.89;95755.44;5063056;28;20036;-77
2020/12/27 01:39:00;;;;;;;6.88;1.27;;;;;;;10.38;70.88;95766.84;5048497;28;20060;-78
2020/12/27 01:41:27;;;;;;;3.55;0.77;;;;;;;9.99;72.12;95748.69;5052220;28;20086;-77
2020/12/27 01:44:07;;;;;;;7.75;1.23;;;;;;;10.37;70.66;95722.59;5046343;28;20513;-77
2020/12/27 01:46:35;;;;;;;4.50;1.17;;;;;;;10.63;70.21;95721.63;5049513;28;20035;-78
2020/12/27 01:49:03;;;;;;;4.88;0.90;;;;;;;10.49;70.38;95719.97;5043246;28;20426;-78
2020/12/27 01:51:30;;;;;;;4.95;1.05;;;;;;;9.94;71.90;95693.41;5057811;28;20041;-78
2020/12/27 01:53:58;;;;;;;7.03;0.77;;;;;;;10.45;70.91;95702.84;5057434;28;20599;-78
2020/12/27 01:56:38;;;;;;;2.42;0.88;;;;;;;9.99;71.39;95681.72;5061993;28;20217;-78
2020/12/27 01:59:09;;;;;;;3.72;1.00;;;;;;;9.90;71.48;95673.72;5072650;28;20045;-79
2020/12/27 02:01:37;;;;;;;4.20;1.17;;;;;;;10.19;71.01;95669.94;5048202;28;20067;-76
2020/12/27 02:04:04;;;;;;;2.83;0.85;;;;;;;10.26;71.49;95671.19;5057072;28;20102;-77
2020/12/27 02:06:34;;;;;;;2.95;1.00;;;;;;;10.39;70.34;95658.94;5049267;28;20135;-78
2020/12/27 02:09:01;;;;;;;3.20;1.00;;;;;;;9.99;71.85;95654.81;5059836;28;20040;-77
2020/12/27 02:11:27;;;;;;;5.90;0.65;;;;;;;10.27;71.02;95644.16;5059090;28;20127;-78
2020/12/27 02:13:59;;;;;;;5.05;0.73;;;;;;;10.12;71.84;95624.31;5059089;28;20062;-78
2020/12/27 02:16:27;;;;;;;2.15;0.68;;;;;;;10.25;72.01;95617.38;5059998;28;20040;-78
2020/12/27 02:18:56;;;;;;;9.32;1.00;;;;;;;10.48;70.97;95610.50;5075636;28;20437;-78
2020/12/27 02:21:23;;;;;;;2.28;0.90;;;;;;;10.16;71.87;95604.97;5060217;28;20071;-78
2020/12/27 02:23:57;;;;;;;2.58;0.90;;;;;;;10.26;71.69;95587.72;5075317;28;20060;-78
2020/12/27 02:26:27;;;;;;;3.85;1.15;;;;;;;10.25;71.57;95578.25;5062758;28;20051;-80
2020/12/27 02:28:56;;;;;;;4.65;1.13;;;;;;;10.20;71.39;95562.09;5058015;28;20051;-79
2020/12/27 02:31:27;;;;;;;6.10;1.45;;;;;;;10.19;72.15;95551.75;5065925;28;20039;-79
2020/12/27 02:33:54;;;;;;;0.80;0.60;;;;;;;9.90;71.74;95570.28;5080017;28;20461;-79
2020/12/27 02:36:21;;;;;;;4.43;0.77;;;;;;;10.39;70.86;95578.06;5051271;28;20475;-79
2020/12/27 02:38:50;;;;;;;4.05;0.70;;;;;;;10.07;72.00;95584.75;5066836;28;20056;-78
2020/12/27 02:41:20;;;;;;;2.15;0.77;;;;;;;9.79;72.33;95582.38;5063922;28;20531;-79
2020/12/27 02:43:46;;;;;;;2.50;0.50;;;;;;;10.08;71.82;95583.78;5061563;28;20047;-79
2020/12/27 02:46:24;;;;;;;2.95;0.50;;;;;;;9.87;73.01;95601.78;5055750;28;20041;-79
2020/12/27 02:48:52;;;;;;;1.40;0.38;;;;;;;9.47;71.52;95574.19;5059792;28;20044;-78
2020/12/27 02:51:20;;;;;;;3.20;0.40;;;;;;;9.03;71.78;95572.81;5044421;28;20379;-79
2020/12/27 02:53:50;;;;;;;0.85;0.22;;;;;;;9.29;71.37;95571.09;5046061;28;20101;-79
2020/12/27 02:56:18;;;;;;;0.85;0.20;;;;;;;9.30;70.54;95551.91;5060390;28;20040;-79
2020/12/27 02:58:45;;;;;;;1.40;0.30;;;;;;;9.45;69.74;95545.63;5058472;28;20417;-79
2020/12/27 03:01:13;;;;;;;1.10;0.20;;;;;;;9.24;70.17;95547.13;5076464;28;20036;-79
2020/12/27 03:03:40;;;;;;;0.55;0.17;;;;;;;9.44;68.99;95541.38;5077323;28;20067;-79
2020/12/27 03:06:23;;;;;;;0.28;0.20;;;;;;;9.03;69.37;95545.97;5056587;28;20056;-79
2020/12/27 03:08:54;;;;;;;0.55;0.32;;;;;;;9.37;69.34;95531.47;5083350;28;20056;-79
2020/12/27 03:11:25;;;;;;;1.02;0.25;;;;;;;9.56;68.66;95534.47;5061980;28;20117;-79
2020/12/27 03:13:52;;;;;;;0.70;0.17;;;;;;;9.27;68.98;95514.81;5078220;28;20119;-79
2020/12/27 03:16:20;;;;;;;3.20;0.40;;;;;;;9.21;69.13;95521.28;5045364;28;20131;-79
2020/12/27 03:18:48;;;;;;;3.40;0.57;;;;;;;9.05;68.88;95513.69;5048390;28;20062;-79
2020/12/27 03:21:16;;;;;;;4.82;0.85;;;;;;;9.42;67.78;95498.13;5058309;28;20036;-79
2020/12/27 03:23:45;;;;;;;3.05;0.68;;;;;;;9.25;68.59;95508.91;5068376;28;20032;-77
2020/12/27 03:26:16;;;;;;;6.70;0.88;;;;;;;9.59;67.78;95497.81;5039851;28;20044;-78
2020/12/27 03:28:42;;;;;;;6.15;1.00;;;;;;;8.77;69.55;95480.06;5083335;28;20043;-78
2020/12/27 03:31:09;;;;;;;5.70;1.88;;;;;;;8.93;69.06;95491.09;5066456;28;20071;-78
2020/12/27 03:33:36;;;;;;;12.88;2.45;;;;;;;9.14;69.35;95488.81;5048373;28;20383;-78
2020/12/27 03:36:03;;;;;;;8.57;2.28;;;;;;;9.17;68.32;95489.41;5054685;28;20040;-78
2020/12/27 03:38:30;;;;;;;4.20;2.13;;;;;;;9.15;68.67;95485.28;5041962;28;20131;-78
2020/12/27 03:40:57;;;;;;;8.88;2.60;;;;;;;9.21;67.75;95481.41;5078883;28;20048;-78
2020/12/27 03:43:24;;;;;;;4.93;2.20;;;;;;;9.76;66.49;95478.34;5075274;28;20056;-78
2020/12/27 03:45:51;;;;;;;4.05;1.88;;;;;;;9.08;67.52;95458.81;5062521;28;20043;-78
2020/12/27 03:48:18;;;;;;;7.95;1.92;;;;;;;9.41;66.41;95454.78;5059711;28;20123;-78
2020/12/27 03:50:44;;;;;;;3.33;1.50;;;;;;;9.17;67.79;95444.31;5079291;28;20055;-78
2020/12/27 03:53:11;;;;;;;6.38;1.38;;;;;;;9.67;65.93;95442.53;5063629;28;20098;-78
2020/12/27 03:55:37;;;;;;;4.93;1.75;;;;;;;9.36;67.41;95430.84;5060984;28;20485;-78
2020/12/27 03:58:04;;;;;;;6.63;1.48;;;;;;;9.34;67.55;95443.16;5063924;28;20071;-78
2020/12/27 04:00:30;;;;;;;8.00;1.63;;;;;;;9.18;68.28;95419.94;5056255;28;20060;-78
2020/12/27 04:02:57;;;;;;;7.82;1.67;;;;;;;8.65;69.20;95413.25;5046210;28;20049;-78
2020/12/27 04:05:25;;;;;;;6.40;1.40;;;;;;;9.07;67.86;95415.50;5077868;28;20139;-79
2020/12/27 04:07:52;;;;;;;4.68;1.58;;;;;;;8.92;67.85;95418.34;5077799;28;20048;-79
2020/12/27 04:10:18;;;;;;;5.40;1.30;;;;;;;9.18;67.20;95417.34;5078438;28;20074;-78
2020/12/27 04:12:46;;;;;;;3.35;1.52;;;;;;;9.19;67.11;95411.22;5078083;28;20202;-79
2020/12/27 04:15:13;;;;;;;7.72;1.95;;;;;;;9.22;67.98;95416.19;5075218;28;20047;-79
2020/12/27 04:17:40;;;;;;;5.05;1.50;;;;;;;8.70;69.15;95408.56;5080373;28;20052;-78
2020/12/27 04:20:07;;;;;;;5.50;1.38;;;;;;;8.82;68.62;95399.09;5063679;28;20048;-78
2020/12/27 04:22:34;;;;;;;1.50;0.80;;;;;;;8.49;69.20;95395.22;5064074;28;20139;-78
2020/12/27 04:25:00;;;;;;;3.15;1.27;;;;;;;8.73;68.79;95398.75;5048707;28;20139;-78
2020/12/27 04:27:27;;;;;;;5.40;1.33;;;;;;;8.92;68.92;95398.31;5084942;28;20372;-78
2020/12/27 04:29:54;;;;;;;1.48;1.20;;;;;;;8.81;68.79;95402.63;5070452;28;20420;-78
2020/12/27 04:32:24;;;;;;;1.55;0.80;;;;;;;8.60;69.48;95382.34;5051385;28;20040;-78
2020/12/27 04:34:50;;;;;;;1.67;0.70;;;;;;;8.56;69.84;95365.28;5049907;28;20474;-78
2020/12/27 04:37:26;;;;;;;2.15;0.85;;;;;;;8.21;69.73;95365.03;5060670;28;20047;-78
2020/12/27 04:39:53;;;;;;;2.40;0.70;;;;;;;8.47;68.25;95368.50;5037613;28;20047;-78
2020/12/27 04:42:21;;;;;;;6.10;0.70;;;;;;;8.09;67.72;95359.84;5062801;28;20040;-78
2020/12/27 04:44:51;;;;;;;3.42;0.90;;;;;;;7.92;67.84;95373.09;5042919;28;20086;-78
2020/12/27 04:47:24;;;;;;;4.05;0.70;;;;;;;8.31;67.30;95368.72;5076869;28;20122;-78
2020/12/27 04:49:52;;;;;;;8.63;1.25;;;;;;;8.32;67.57;95374.75;5079785;28;20065;-77
2020/12/27 04:52:21;;;;;;;11.05;1.35;;;;;;;8.44;67.51;95367.91;5074827;28;20044;-78
2020/12/27 04:54:50;;;;;;;6.60;1.80;;;;;;;8.44;66.82;95368.69;5058690;28;20127;-78
2020/12/27 04:57:18;;;;;;;6.38;1.00;;;;;;;8.55;66.85;95371.41;5065909;28;20050;-79
2020/12/27 04:59:47;;;;;;;9.60;1.20;;;;;;;8.43;66.81;95380.06;5048737;28;20089;-77
2020/12/27 05:02:15;;;;;;;6.00;1.10;;;;;;;8.33;66.33;95366.03;5054575;28;20051;-78
2020/12/27 05:04:44;;;;;;;13.63;1.92;;;;;;;8.47;66.93;95372.88;5054584;28;20437;-78
2020/12/27 05:07:19;;;;;;;10.85;0.90;;;;;;;8.05;67.26;95369.59;5059102;28;20511;-78
2020/12/27 05:09:50;;;;;;;7.45;1.00;;;;;;;8.87;65.97;95370.97;5053032;28;20044;-78
2020/12/27 05:12:17;;;;;;;8.25;1.33;;;;;;;8.67;66.83;95390.56;5058275;28;20044;-78
2020/12/27 05:14:46;;;;;;;10.73;1.10;;;;;;;7.32;69.82;95391.72;5066859;28;20052;-78
2020/12/27 05:17:14;;;;;;;6.30;0.70;;;;;;;6.95;70.52;95426.91;5064762;28;20753;-77
2020/12/27 05:19:42;;;;;;;2.92;0.93;;;;;;;6.55;70.09;95428.47;5075242;28;20163;-78
2020/12/27 05:22:10;;;;;;;3.78;0.60;;;;;;;6.60;69.99;95426.44;5045451;28;20117;-78
2020/12/27 05:24:38;;;;;;;1.38;0.30;;;;;;;6.83;68.74;95440.59;5054090;28;20051;-79
2020/12/27 05:27:08;;;;;;;4.55;0.50;;;;;;;6.76;69.20;95432.34;5056543;28;20048;-79
2020/12/27 05:29:37;;;;;;;4.82;0.80;;;;;;;6.62;70.13;95416.00;5053144;28;20121;-79
2020/12/27 05:32:04;;;;;;;8.43;0.90;;;;;;;6.72;68.25;95407.53;5039034;28;20040;-78
2020/12/27 05:34:31;;;;;;;4.72;0.52;;;;;;;6.63;68.22;95396.88;5077060;28;20036;-79
2020/12/27 05:37:00;;;;;;;4.82;0.80;;;;;;;6.44;67.70;95397.16;5059607;28;20057;-79
2020/12/27 05:39:30;;;;;;;4.55;0.77;;;;;;;6.38;67.55;95394.94;5070659;28;20087;-78
2020/12/27 05:42:03;;;;;;;2.42;0.77;;;;;;;5.91;68.94;95389.94;5080174;28;20099;-79
2020/12/27 05:44:31;;;;;;;5.65;1.23;;;;;;;6.57;67.57;95396.31;5063941;28;20040;-78
2020/12/27 05:46:58;;;;;;;6.35;0.60;;;;;;;6.44;67.95;95389.38;5049391;28;20036;-78
2020/12/27 05:49:26;;;;;;;9.73;1.27;;;;;;;6.51;67.61;95388.09;5062106;28;20078;-79
2020/12/27 05:51:55;;;;;;;5.35;0.95;;;;;;;6.60;66.86;95394.50;5054037;28;20056;-79
2020/12/27 05:54:30;;;;;;;6.25;0.77;;;;;;;6.89;66.72;95388.38;5058173;28;20060;-79
2020/12/27 05:56:59;;;;;;;7.07;0.82;;;;;;;6.69;65.78;95393.94;5061761;28;20052;-79
2020/12/27 05:59:30;;;;;;;10.63;1.55;;;;;;;6.76;66.10;95393.44;5056507;28;20041;-79
2020/12/27 06:01:59;;;;;;;11.77;1.03;;;;;;;6.85;65.70;95410.25;5062032;28;20046;-79
2020/12/27 06:05:05;;;;;;;12.65;1.00;;;;;;;6.69;67.10;95410.31;5077899;28;20036;-78
2020/12/27 06:07:34;;;;;;;5.97;0.90;;;;;;;6.55;67.30;95413.75;5058872;28;20052;-78
2020/12/27 06:10:00;;;;;;;16.48;1.58;;;;;;;6.56;68.22;95417.19;5048048;28;20451;-79
2020/12/27 06:12:56;;;;;;;6.20;1.20;;;;;;;6.75;67.85;95412.56;5052933;28;20028;-79
2020/12/27 06:15:30;;;;;;;7.35;1.08;;;;;;;6.67;68.42;95411.31;5036945;28;20052;-80
2020/12/27 06:18:08;;;;;;;9.02;1.35;;;;;;;6.83;68.43;95412.91;5054082;28;20836;-80
2020/12/27 06:20:44;;;;;;;9.82;1.35;;;;;;;6.88;67.73;95413.47;5058906;28;20048;-79
2020/12/27 06:23:11;;;;;;;8.18;0.95;;;;;;;6.38;67.94;95407.91;5074375;28;20040;-80
2020/12/27 06:25:39;;;;;;;5.25;0.60;;;;;;;6.83;67.53;95417.25;5056588;28;20048;-78
2020/12/27 06:28:07;;;;;;;9.30;1.00;;;;;;;6.92;66.54;95406.31;5063403;28;20110;-78
2020/12/27 06:30:44;;;;;;;8.52;0.65;;;;;;;6.61;66.55;95407.38;5045763;28;20136;-78
2020/12/27 06:33:25;;;;;;;5.30;0.63;;;;;;;6.27;68.12;95411.13;5043527;28;20148;-78
2020/12/27 06:35:51;;;;;;;4.90;0.90;;;;;;;6.21;67.55;95408.06;5073920;28;20037;-79
2020/12/27 06:38:20;;;;;;;5.20;0.70;;;;;;;6.45;66.84;95402.25;5075976;28;20051;-77
2020/12/27 06:40:47;;;;;;;6.03;1.02;;;;;;;5.98;67.31;95402.47;5052204;28;20040;-78
2020/12/27 06:43:19;;;;;;;7.43;0.90;;;;;;;6.18;66.85;95416.03;5072873;28;20066;-78
2020/12/27 06:45:46;;;;;;;8.05;1.08;;;;;;;5.98;66.82;95407.66;5074854;28;20053;-78
2020/12/27 06:48:37;;;;;;;4.45;1.10;;;;;;;6.17;66.24;95414.34;5060486;28;20089;-78
2020/12/27 06:51:03;;;;;;;6.18;1.02;;;;;;;6.43;65.01;95406.69;5058430;28;20386;-79
2020/12/27 06:53:45;;;;;;;7.00;0.93;;;;;;;6.08;65.81;95411.38;5067498;28;20114;-79
2020/12/27 06:56:15;;;;;;;6.80;0.98;;;;;;;6.22;65.60;95425.28;5072219;28;20121;-79
2020/12/27 06:59:00;;;;;;;8.75;1.30;;;;;;;6.21;65.63;95419.25;5060730;28;20060;-79
2020/12/27 07:01:27;;;;;;;3.22;0.75;;;;;;;6.54;64.26;95424.19;5047442;28;20102;-78
2020/12/27 07:04:09;;;;;;;9.20;1.02;;;;;;;6.95;63.15;95419.13;5057950;28;20152;-78
2020/12/27 07:06:45;;;;;;;7.88;0.93;;;;;;;6.66;63.90;95418.31;5076421;28;20032;-78
2020/12/27 07:09:21;;;;;;;6.18;1.20;;;;;;;6.16;65.08;95420.44;5062520;28;21085;-78
2020/12/27 07:12:06;;;;;;;10.93;1.42;;;;;;;6.42;64.81;95404.22;5041037;28;20127;-79
2020/12/27 07:14:38;;;;;;;11.02;1.50;;;;;;;5.99;65.50;95403.31;5078874;28;20949;-79
2020/12/27 07:17:09;;;;;;;11.73;1.25;;;;;;;6.19;65.49;95399.56;5076773;28;20056;-79
2020/12/27 07:19:37;;;;;;;13.60;1.92;;;;;;;6.43;64.83;95398.91;5077842;28;20048;-78
2020/12/27 07:22:11;;;;;;;8.25;1.35;;;;;;;6.37;64.46;95398.47;5062034;28;20550;-78
2020/12/27 07:24:42;;;;;;;5.88;1.10;;;;;;;6.36;64.29;95394.19;5060018;28;20040;-79
2020/12/27 07:27:12;;;;;;;8.95;1.20;;;;;;;6.39;64.27;95397.44;5084694;28;20048;-78
2020/12/27 07:29:40;;;;;;;19.23;1.80;;;;;;;6.50;63.90;95389.88;5048234;28;20402;-79
2020/12/27 07:32:13;;;;;;;7.25;1.20;;;;;;;6.08;64.14;95369.09;5063195;28;20049;-79
2020/12/27 07:34:40;;;;;;;12.10;1.60;;;;;;;5.42;65.39;95371.97;5083091;28;20514;-79
2020/12/27 07:37:08;;;;;;;19.15;1.88;;;;;;;5.68;65.22;95363.59;5056817;28;20521;-80
2020/12/27 07:39:50;;;;;;;8.85;1.50;;;;;;;5.62;65.77;95363.09;5060142;28;20048;-79
2020/12/27 07:42:31;;;;;;;14.23;1.17;;;;;;;6.00;64.55;95372.09;5080135;28;20445;-79
2020/12/27 07:45:00;;;;;;;5.63;1.03;;;;;;;5.52;65.92;95370.56;5064483;28;20045;-79
2020/12/27 07:47:28;;;;;;;9.65;1.33;;;;;;;5.84;65.12;95371.31;5055535;28;20040;-79
2020/12/27 07:50:05;;;;;;;22.80;1.77;;;;;;;5.91;65.11;95370.06;5058992;28;20044;-79
2020/12/27 07:52:48;;;;;;;12.85;1.35;;;;;;;6.00;65.84;95369.53;5080079;28;20036;-79
2020/12/27 07:55:37;;;;;;;12.15;1.63;;;;;;;6.12;66.92;95368.81;5061897;28;20054;-80
2020/12/27 07:58:06;;;;;;;9.35;1.38;;;;;;;5.95;68.09;95357.75;5060082;28;20431;-80
2020/12/27 08:00:35;;;;;;;7.15;1.27;;;;;;;5.85;68.45;95351.44;5059750;28;20500;-80
2020/12/27 08:03:06;;;;;;;7.38;0.93;;;;;;;5.70;69.20;95345.41;5055276;28;20045;-80
2020/12/27 08:05:37;;;;;;;3.67;0.93;;;;;;;5.73;68.84;95327.06;5086794;28;20116;-80
2020/12/27 08:08:06;;;;;;;5.80;1.10;;;;;;;5.97;67.53;95330.03;5063994;28;20159;-80
2020/12/27 08:10:34;;;;;;;9.80;1.38;;;;;;;5.74;68.07;95323.56;5046205;28;20409;-80
2020/12/27 08:13:08;;;;;;;13.45;2.15;;;;;;;5.61;67.69;95343.34;5049979;28;20138;-81
2020/12/27 08:15:40;;;;;;;11.43;1.85;;;;;;;5.62;69.35;95332.88;5059621;28;20044;-79
2020/12/27 08:18:11;;;;;;;12.70;1.80;;;;;;;5.42;69.35;95328.00;5063769;28;20040;-78
2020/12/27 08:20:46;;;;;;;8.25;1.45;;;;;;;5.79;68.89;95316.38;5058833;28;20051;-79
2020/12/27 08:23:14;;;;;;;6.13;1.08;;;;;;;5.58;69.01;95315.84;5080071;28;20044;-79
2020/12/27 08:25:43;;;;;;;7.10;1.20;;;;;;;5.85;67.51;95321.16;5068766;28;20044;-79
2020/12/27 08:28:13;;;;;;;7.00;1.13;;;;;;;5.57;68.01;95321.09;5060509;28;20039;-80
2020/12/27 08:30:40;;;;;;;6.55;1.00;;;;;;;5.60;68.47;95331.31;5060579;28;20055;-80
2020/12/27 08:33:17;;;;;;;9.55;2.17;;;;;;;5.49;68.26;95320.72;5082521;28;20043;-80
2020/12/27 08:35:49;;;;;;;12.50;1.42;;;;;;;5.51;68.40;95317.16;5063777;28;20033;-80
2020/12/27 08:38:30;;;;;;;19.27;1.88;;;;;;;5.56;68.31;95328.03;5042627;28;20036;-79
2020/12/27 08:41:37;;;;;;;9.17;1.77;;;;;;;5.81;67.67;95319.69;5055997;28;20060;-80
2020/12/27 08:44:22;;;;;;;9.80;1.95;;;;;;;5.51;68.41;95327.50;5071581;28;20293;-80
2020/12/27 08:46:53;;;;;;;16.00;2.08;;;;;;;5.54;67.61;95316.97;5054432;28;20141;-79
2020/12/27 08:49:28;;;;;;;8.85;1.88;;;;;;;5.52;67.57;95310.19;5050949;28;20056;-79
2020/12/27 08:52:22;;;;;;;7.35;1.90;;;;;;;5.90;66.92;95305.41;5066033;28;20514;-80
2020/12/27 08:55:04;;;;;;;11.23;2.10;;;;;;;5.61;67.75;95284.59;5076017;28;20074;-79
2020/12/27 08:57:31;;;;;;;11.70;2.20;;;;;;;5.57;68.74;95296.06;5059475;28;20064;-80
2020/12/27 09:00:08;;;;;;;9.90;1.58;;;;;;;5.71;67.59;95272.78;5059101;28;20081;-80
2020/12/27 09:02:36;;;;;;;7.38;1.50;;;;;;;5.38;68.77;95260.97;5058202;28;20051;-80
2020/12/27 09:05:08;;;;;;;;;;;;;;;5.28;68.63;95261.50;5052914;28;20052;-80
2020/12/27 09:07:38;;;;;;;9.25;1.63;;;;;;;5.74;67.22;95282.16;5057529;28;19986;-80
2020/12/27 09:10:23;;;;;;;11.73;1.80;;;;;;;5.91;66.17;95276.00;5049097;28;20089;-79
2020/12/27 09:13:09;;;;;;;12.77;2.25;;;;;;;5.95;66.40;95267.09;5045386;28;20051;-79
2020/12/27 09:15:46;;;;;;;14.13;2.00;;;;;;;6.22;64.88;95255.09;5044935;28;20051;-80
2020/12/27 09:18:31;;;;;;;9.57;2.42;;;;;;;6.72;63.09;95246.75;5010396;28;20071;-79
2020/12/27 09:21:08;;;;;;;6.45;2.00;;;;;;;7.69;60.63;95270.72;5045477;28;20052;-79
2020/12/27 09:23:34;;;;;;;6.70;2.10;;;;;;;8.25;57.65;95249.50;5067257;28;20517;-79
2020/12/27 09:26:10;;;;;;;9.40;1.70;;;;;;;7.54;59.63;95253.53;5056075;28;20445;-79
2020/12/27 09:28:42;;;;;;;12.65;1.92;;;;;;;7.98;58.27;95258.34;5049395;28;20129;-79
2020/12/27 09:31:15;;;;;;;9.00;1.20;;;;;;;8.36;56.60;95271.34;5058829;28;20516;-79
2020/12/27 09:33:47;;;;;;;14.80;3.75;;;;;;;8.38;56.54;95265.13;5047552;28;20050;-80
2020/12/27 09:36:16;;;;;;;10.32;2.08;;;;;;;8.95;55.63;95264.56;5055600;28;20036;-80
2020/12/27 09:38:47;;;;;;;9.20;1.70;;;;;;;9.16;55.58;95276.84;5075438;28;20495;-78
2020/12/27 09:41:20;;;;;;;9.82;1.52;;;;;;;10.44;52.91;95285.53;5058778;28;20482;-79
2020/12/27 09:43:48;;;;;;;14.73;2.45;;;;;;;10.01;53.88;95280.97;5065133;28;20052;-80
2020/12/27 09:46:44;;;;;;;10.60;1.83;;;;;;;9.73;52.87;95283.97;5049564;28;20041;-81
2020/12/27 09:49:32;;;;;;;18.30;2.38;;;;;;;9.37;56.17;95284.91;5049142;28;20481;-78
2020/12/27 09:52:15;;;;;;;10.45;1.63;;;;;;;9.30;54.45;95267.22;5060402;28;20161;-78
2020/12/27 09:54:46;;;;;;;5.93;1.38;;;;;;;8.88;57.52;95261.56;5073610;28;20130;-79
2020/12/27 09:57:19;;;;;;;7.90;1.30;;;;;;;8.82;57.63;95277.63;5054497;28;20042;-80
2020/12/27 09:59:53;;;;;;;7.10;1.58;;;;;;;9.52;55.13;95298.56;5062568;28;20063;-79
2020/12/27 10:02:21;;;;;;;10.60;1.98;;;;;;;9.37;55.69;95294.47;5044610;28;20463;-78
2020/12/27 10:04:48;;;;;;;11.73;1.55;;;;;;;9.51;55.26;95291.69;5059752;28;20367;-78
2020/12/27 10:07:17;;;;;;;12.68;1.75;;;;;;;8.96;58.88;95284.44;5070660;28;20029;-79
2020/12/27 10:09:44;;;;;;;15.80;1.60;;;;;;;7.95;61.24;95281.97;5055648;28;20040;-79
2020/12/27 10:12:14;;;;;;;16.63;2.30;;;;;;;7.70;62.31;95281.00;5063412;28;20650;-79
2020/12/27 10:14:40;;;;;;;10.02;1.73;;;;;;;7.04;63.57;95293.19;5042350;28;20040;-80
2020/12/27 10:17:08;;;;;;;10.60;1.83;;;;;;;8.39;61.10;95286.78;5059845;28;20691;-79
2020/12/27 10:19:39;;;;;;;12.20;2.10;;;;;;;9.00;57.73;95288.50;5041490;28;20044;-79
2020/12/27 10:22:08;;;;;;;12.45;2.17;;;;;;;8.26;59.09;95305.75;5062942;28;20146;-79
2020/12/27 10:24:40;;;;;;;11.90;2.35;;;;;;;8.46;57.67;95296.63;5057255;28;20040;-79
2020/12/27 10:27:07;;;;;;;14.70;1.63;;;;;;;8.58;57.19;95307.97;5044246;28;20422;-79
2020/12/27 10:29:35;;;;;;;12.27;1.83;;;;;;;8.61;57.63;95321.59;5066124;28;20044;-79
2020/12/27 10:32:05;;;;;;;14.77;1.95;;;;;;;9.37;54.11;95308.34;5054400;28;20146;-79
2020/12/27 10:34:35;;;;;;;19.17;2.50;;;;;;;9.72;54.61;95320.56;5073262;28;20419;-78
2020/12/27 10:37:03;;;;;;;18.98;2.53;;;;;;;11.28;49.93;95306.69;5053045;28;20067;-78
2020/12/27 10:39:35;;;;;;;16.60;2.65;;;;;;;10.66;50.22;95314.22;5061007;28;20040;-78
2020/12/27 10:42:05;;;;;;;18.23;2.63;;;;;;;11.88;48.43;95321.00;5051047;28;20044;-79
2020/12/27 10:44:33;;;;;;;12.63;2.65;;;;;;;11.52;49.20;95337.00;5044700;28;20063;-78
2020/12/27 10:46:59;;;;;;;21.08;3.22;;;;;;;12.12;47.10;95334.66;5078874;28;20146;-80
2020/12/27 10:49:28;;;;;;;17.98;2.88;;;;;;;12.16;46.82;95345.69;5060811;28;20051;-79
2020/12/27 10:51:55;;;;;;;17.58;2.97;;;;;;;12.81;45.96;95344.53;5082017;28;20036;-77
2020/12/27 10:54:22;;;;;;;16.70;2.83;;;;;;;13.07;44.78;95343.97;5063762;28;20049;-78
2020/12/27 10:56:49;;;;;;;13.13;2.47;;;;;;;13.31;43.37;95350.69;5045956;28;20036;-78
2020/12/27 10:59:16;;;;;;;16.98;2.78;;;;;;;13.56;43.53;95354.63;5056155;28;20049;-78
2020/12/27 11:01:53;;;;;;;16.92;3.45;;;;;;;10.66;49.09;95347.31;5050034;28;20052;-79
2020/12/27 11:04:22;;;;;;;18.52;2.92;;;;;;;9.29;52.33;95349.72;5053403;28;20087;-77
2020/12/27 11:06:49;;;;;;;20.67;2.78;;;;;;;9.54;52.49;95341.00;5028635;28;20115;-77
2020/12/27 11:09:16;;;;;;;17.40;3.30;;;;;;;10.41;51.07;95346.59;5046837;28;20495;-79
2020/12/27 11:11:45;;;;;;;14.95;3.17;;;;;;;10.97;48.40;95332.75;5043563;28;20143;-77
2020/12/27 11:14:12;;;;;;;13.85;3.13;;;;;;;10.79;49.70;95329.78;5043754;28;20061;-77
2020/12/27 11:16:39;;;;;;;16.95;2.85;;;;;;;11.85;47.15;95338.69;5031427;28;20064;-78
2020/12/27 11:19:08;;;;;;;17.35;2.67;;;;;;;11.91;45.74;95331.19;5046438;28;20188;-77
2020/12/27 11:21:44;;;;;;;12.25;2.20;;;;;;;10.87;49.49;95335.25;5050977;28;20102;-77
2020/12/27 11:24:11;;;;;;;17.58;2.97;;;;;;;11.49;46.89;95337.28;5044643;28;20389;-78
2020/12/27 11:26:38;;;;;;;12.65;2.13;;;;;;;12.25;45.03;95334.47;5028764;28;20501;-76
2020/12/27 11:29:05;;;;;;;11.90;2.33;;;;;;;13.27;43.78;95341.44;5050578;28;20066;-77
2020/12/27 11:31:32;;;;;;;14.55;2.30;;;;;;;13.64;42.15;95336.41;5062388;28;20094;-76
2020/12/27 11:33:59;;;;;;;13.77;2.58;;;;;;;12.85;43.54;95336.31;5049143;28;20088;-76
2020/12/27 11:36:26;;;;;;;16.30;2.85;;;;;;;11.52;46.02;95330.00;5029216;28;20041;-77
2020/12/27 11:38:52;;;;;;;19.52;2.75;;;;;;;10.47;48.80;95332.25;5049345;28;20050;-78
2020/12/27 11:41:20;;;;;;;17.98;2.58;;;;;;;10.32;50.21;95333.41;5062621;28;20059;-78
2020/12/27 11:43:46;;;;;;;19.42;2.42;;;;;;;10.28;49.19;95327.59;5065558;28;20095;-76
2020/12/27 11:46:13;;;;;;;21.05;2.67;;;;;;;10.22;49.23;95317.63;5062061;28;20033;-77
2020/12/27 11:48:40;;;;;;;12.27;3.00;;;;;;;9.38;51.83;95310.00;5066091;28;20146;-76
2020/12/27 11:51:08;;;;;;;18.95;3.20;;;;;;;9.86;51.63;95307.34;5046878;28;20062;-76